sensor_id;sensor_type;location;lat;lon;timestamp;P1;durP1;ratioP1;P2;durP2;ratioP2
64799;SDS011;51233;51.982;4.594;2024-02-04T00:02:52;23.83;;;6.80;;
64799;SDS011;51233;51.982;4.594;2024-02-04T00:05:52;21.77;;;6.73;;
64799;SDS011;51233;51.982;4.594;2024-02-04T00:08:52;26.93;;;7.70;;
64799;SDS011;51233;51.982;4.594;2024-02-04T00:11:52;19.40;;;5.20;;
64799;SDS011;51233;51.982;4.594;2024-02-04T00:14:52;19.17;;;5.97;;
64799;SDS011;51233;51.982;4.594;2024-02-04T00:17:53;21.46;;;6.50;;
64799;SDS011;51233;51.982;4.594;2024-02-04T00:20:53;23.52;;;6.47;;
64799;SDS011;51233;51.982;4.594;2024-02-04T00:23:53;20.87;;;5.97;;
64799;SDS011;51233;51.982;4.594;2024-02-04T00:26:53;24.30;;;6.77;;
64799;SDS011;51233;51.982;4.594;2024-02-04T00:29:53;20.48;;;5.65;;
64799;SDS011;51233;51.982;4.594;2024-02-04T00:32:53;18.00;;;6.13;;
64799;SDS011;51233;51.982;4.594;2024-02-04T00:35:54;21.42;;;6.47;;
64799;SDS011;51233;51.982;4.594;2024-02-04T00:38:54;16.10;;;5.60;;
64799;SDS011;51233;51.982;4.594;2024-02-04T00:41:54;16.85;;;5.88;;
64799;SDS011;51233;51.982;4.594;2024-02-04T00:44:54;21.17;;;6.40;;
64799;SDS011;51233;51.982;4.594;2024-02-04T00:47:54;15.75;;;5.18;;
64799;SDS011;51233;51.982;4.594;2024-02-04T00:50:55;20.88;;;5.30;;
64799;SDS011;51233;51.982;4.594;2024-02-04T00:53:55;18.13;;;6.10;;
64799;SDS011;51233;51.982;4.594;2024-02-04T00:56:55;20.17;;;6.47;;
64799;SDS011;51233;51.982;4.594;2024-02-04T00:59:57;21.85;;;6.82;;
64799;SDS011;51233;51.982;4.594;2024-02-04T01:02:57;21.43;;;6.53;;
64799;SDS011;51233;51.982;4.594;2024-02-04T01:05:57;21.80;;;7.50;;
64799;SDS011;51233;51.982;4.594;2024-02-04T01:08:59;23.77;;;6.30;;
64799;SDS011;51233;51.982;4.594;2024-02-04T01:11:59;21.77;;;6.15;;
64799;SDS011;51233;51.982;4.594;2024-02-04T01:14:59;20.20;;;6.60;;
64799;SDS011;51233;51.982;4.594;2024-02-04T01:17:59;18.40;;;6.00;;
64799;SDS011;51233;51.982;4.594;2024-02-04T01:20:59;19.60;;;6.00;;
64799;SDS011;51233;51.982;4.594;2024-02-04T01:24:00;20.30;;;6.47;;
64799;SDS011;51233;51.982;4.594;2024-02-04T01:27:00;14.97;;;5.53;;
64799;SDS011;51233;51.982;4.594;2024-02-04T01:30:01;19.73;;;6.10;;
64799;SDS011;51233;51.982;4.594;2024-02-04T01:33:01;24.57;;;6.00;;
64799;SDS011;51233;51.982;4.594;2024-02-04T01:36:01;23.23;;;6.03;;
64799;SDS011;51233;51.982;4.594;2024-02-04T01:39:01;19.55;;;6.60;;
64799;SDS011;51233;51.982;4.594;2024-02-04T01:42:02;16.35;;;5.30;;
64799;SDS011;51233;51.982;4.594;2024-02-04T01:45:02;24.27;;;5.93;;
64799;SDS011;51233;51.982;4.594;2024-02-04T01:48:03;19.93;;;6.10;;
64799;SDS011;51233;51.982;4.594;2024-02-04T01:51:03;16.33;;;5.55;;
64799;SDS011;51233;51.982;4.594;2024-02-04T01:54:04;18.33;;;5.65;;
64799;SDS011;51233;51.982;4.594;2024-02-04T01:57:05;12.65;;;4.97;;
64799;SDS011;51233;51.982;4.594;2024-02-04T02:00:06;21.90;;;5.83;;
64799;SDS011;51233;51.982;4.594;2024-02-04T02:03:08;16.83;;;4.57;;
64799;SDS011;51233;51.982;4.594;2024-02-04T02:06:11;20.95;;;5.68;;
64799;SDS011;51233;51.982;4.594;2024-02-04T02:09:11;17.95;;;5.45;;
64799;SDS011;51233;51.982;4.594;2024-02-04T02:15:49;19.20;;;5.75;;
64799;SDS011;51233;51.982;4.594;2024-02-04T02:19:00;14.48;;;5.15;;
64799;SDS011;51233;51.982;4.594;2024-02-04T02:22:37;10.65;;;4.97;;
64799;SDS011;51233;51.982;4.594;2024-02-04T02:25:28;14.52;;;4.68;;
64799;SDS011;51233;51.982;4.594;2024-02-04T02:28:29;13.07;;;5.25;;
64799;SDS011;51233;51.982;4.594;2024-02-04T02:31:30;16.87;;;5.77;;
64799;SDS011;51233;51.982;4.594;2024-02-04T02:34:30;12.27;;;4.10;;
64799;SDS011;51233;51.982;4.594;2024-02-04T02:37:36;16.60;;;5.33;;
64799;SDS011;51233;51.982;4.594;2024-02-04T02:40:45;19.08;;;4.95;;
64799;SDS011;51233;51.982;4.594;2024-02-04T02:43:47;19.50;;;5.45;;
64799;SDS011;51233;51.982;4.594;2024-02-04T02:46:47;14.35;;;4.38;;
64799;SDS011;51233;51.982;4.594;2024-02-04T02:49:50;14.18;;;4.90;;
64799;SDS011;51233;51.982;4.594;2024-02-04T02:52:50;14.82;;;4.65;;
64799;SDS011;51233;51.982;4.594;2024-02-04T02:55:50;12.67;;;4.30;;
64799;SDS011;51233;51.982;4.594;2024-02-04T02:58:51;10.32;;;4.28;;
64799;SDS011;51233;51.982;4.594;2024-02-04T03:01:51;12.85;;;5.32;;
64799;SDS011;51233;51.982;4.594;2024-02-04T03:04:51;12.85;;;4.63;;
64799;SDS011;51233;51.982;4.594;2024-02-04T03:07:51;12.77;;;5.65;;
64799;SDS011;51233;51.982;4.594;2024-02-04T03:10:51;14.18;;;5.07;;
64799;SDS011;51233;51.982;4.594;2024-02-04T03:13:52;11.07;;;4.40;;
64799;SDS011;51233;51.982;4.594;2024-02-04T03:16:52;18.10;;;5.70;;
64799;SDS011;51233;51.982;4.594;2024-02-04T03:19:52;16.27;;;4.85;;
64799;SDS011;51233;51.982;4.594;2024-02-04T03:22:55;13.15;;;4.93;;
64799;SDS011;51233;51.982;4.594;2024-02-04T03:25:55;9.40;;;3.53;;
64799;SDS011;51233;51.982;4.594;2024-02-04T03:28:55;14.43;;;3.80;;
64799;SDS011;51233;51.982;4.594;2024-02-04T03:31:55;12.35;;;4.03;;
64799;SDS011;51233;51.982;4.594;2024-02-04T03:34:56;10.77;;;3.97;;
64799;SDS011;51233;51.982;4.594;2024-02-04T03:37:56;11.50;;;4.03;;
64799;SDS011;51233;51.982;4.594;2024-02-04T03:40:56;15.13;;;4.27;;
64799;SDS011;51233;51.982;4.594;2024-02-04T03:43:56;11.48;;;3.85;;
64799;SDS011;51233;51.982;4.594;2024-02-04T03:46:56;15.07;;;4.50;;
64799;SDS011;51233;51.982;4.594;2024-02-04T03:49:57;11.05;;;3.72;;
64799;SDS011;51233;51.982;4.594;2024-02-04T03:52:57;12.23;;;3.53;;
64799;SDS011;51233;51.982;4.594;2024-02-04T03:55:57;10.55;;;3.50;;
64799;SDS011;51233;51.982;4.594;2024-02-04T03:58:57;13.70;;;4.10;;
64799;SDS011;51233;51.982;4.594;2024-02-04T04:01:58;17.40;;;4.20;;
64799;SDS011;51233;51.982;4.594;2024-02-04T04:04:58;12.88;;;4.72;;
64799;SDS011;51233;51.982;4.594;2024-02-04T04:07:58;13.93;;;5.27;;
64799;SDS011;51233;51.982;4.594;2024-02-04T04:10:58;14.40;;;4.60;;
64799;SDS011;51233;51.982;4.594;2024-02-04T04:13:58;17.27;;;5.43;;
64799;SDS011;51233;51.982;4.594;2024-02-04T04:16:59;15.90;;;4.80;;
64799;SDS011;51233;51.982;4.594;2024-02-04T04:19:59;13.20;;;5.03;;
64799;SDS011;51233;51.982;4.594;2024-02-04T04:22:59;10.65;;;3.95;;
64799;SDS011;51233;51.982;4.594;2024-02-04T04:25:59;9.70;;;4.07;;
64799;SDS011;51233;51.982;4.594;2024-02-04T04:28:59;16.02;;;4.53;;
64799;SDS011;51233;51.982;4.594;2024-02-04T04:31:59;15.70;;;4.30;;
64799;SDS011;51233;51.982;4.594;2024-02-04T04:35:00;11.73;;;4.75;;
64799;SDS011;51233;51.982;4.594;2024-02-04T04:38:00;16.03;;;4.73;;
64799;SDS011;51233;51.982;4.594;2024-02-04T04:41:00;16.60;;;4.60;;
64799;SDS011;51233;51.982;4.594;2024-02-04T04:44:00;18.83;;;5.20;;
64799;SDS011;51233;51.982;4.594;2024-02-04T04:47:00;15.68;;;5.60;;
64799;SDS011;51233;51.982;4.594;2024-02-04T04:50:01;19.10;;;5.73;;
64799;SDS011;51233;51.982;4.594;2024-02-04T04:53:01;13.83;;;5.60;;
64799;SDS011;51233;51.982;4.594;2024-02-04T04:56:01;13.45;;;5.60;;
64799;SDS011;51233;51.982;4.594;2024-02-04T04:59:01;16.05;;;5.55;;
64799;SDS011;51233;51.982;4.594;2024-02-04T05:02:02;13.80;;;5.18;;
64799;SDS011;51233;51.982;4.594;2024-02-04T05:05:02;13.53;;;4.63;;
64799;SDS011;51233;51.982;4.594;2024-02-04T05:08:03;18.47;;;6.20;;
64799;SDS011;51233;51.982;4.594;2024-02-04T05:11:03;15.45;;;5.28;;
64799;SDS011;51233;51.982;4.594;2024-02-04T05:14:04;15.10;;;5.25;;
64799;SDS011;51233;51.982;4.594;2024-02-04T05:17:04;18.98;;;6.55;;
64799;SDS011;51233;51.982;4.594;2024-02-04T05:20:05;19.10;;;6.93;;
64799;SDS011;51233;51.982;4.594;2024-02-04T05:23:07;20.02;;;7.07;;
64799;SDS011;51233;51.982;4.594;2024-02-04T05:26:07;13.63;;;5.88;;
64799;SDS011;51233;51.982;4.594;2024-02-04T05:29:08;14.90;;;5.57;;
64799;SDS011;51233;51.982;4.594;2024-02-04T05:32:08;18.40;;;5.53;;
64799;SDS011;51233;51.982;4.594;2024-02-04T05:35:08;16.27;;;5.07;;
64799;SDS011;51233;51.982;4.594;2024-02-04T05:38:09;18.08;;;4.97;;
64799;SDS011;51233;51.982;4.594;2024-02-04T05:41:09;16.52;;;4.57;;
64799;SDS011;51233;51.982;4.594;2024-02-04T05:44:09;14.68;;;3.85;;
64799;SDS011;51233;51.982;4.594;2024-02-04T05:47:10;12.33;;;3.53;;
64799;SDS011;51233;51.982;4.594;2024-02-04T05:50:10;17.13;;;4.00;;
64799;SDS011;51233;51.982;4.594;2024-02-04T05:53:10;11.23;;;3.75;;
64799;SDS011;51233;51.982;4.594;2024-02-04T05:56:10;11.80;;;3.40;;
64799;SDS011;51233;51.982;4.594;2024-02-04T05:59:11;11.45;;;3.28;;
64799;SDS011;51233;51.982;4.594;2024-02-04T06:02:11;14.33;;;3.00;;
64799;SDS011;51233;51.982;4.594;2024-02-04T06:05:12;10.77;;;3.40;;
64799;SDS011;51233;51.982;4.594;2024-02-04T06:08:12;8.50;;;3.10;;
64799;SDS011;51233;51.982;4.594;2024-02-04T06:11:13;10.02;;;2.92;;
64799;SDS011;51233;51.982;4.594;2024-02-04T06:14:13;9.90;;;3.10;;
64799;SDS011;51233;51.982;4.594;2024-02-04T06:17:13;10.30;;;3.28;;
64799;SDS011;51233;51.982;4.594;2024-02-04T06:20:13;13.37;;;3.63;;
64799;SDS011;51233;51.982;4.594;2024-02-04T06:23:13;10.07;;;3.75;;
64799;SDS011;51233;51.982;4.594;2024-02-04T06:26:14;7.70;;;3.50;;
64799;SDS011;51233;51.982;4.594;2024-02-04T06:29:14;11.77;;;3.90;;
64799;SDS011;51233;51.982;4.594;2024-02-04T06:32:14;10.80;;;3.73;;
64799;SDS011;51233;51.982;4.594;2024-02-04T06:35:14;12.13;;;3.50;;
64799;SDS011;51233;51.982;4.594;2024-02-04T06:38:15;11.53;;;3.27;;
64799;SDS011;51233;51.982;4.594;2024-02-04T06:41:15;10.23;;;2.93;;
64799;SDS011;51233;51.982;4.594;2024-02-04T06:44:15;11.77;;;3.20;;
64799;SDS011;51233;51.982;4.594;2024-02-04T06:47:15;15.60;;;3.90;;
64799;SDS011;51233;51.982;4.594;2024-02-04T06:50:15;15.93;;;3.20;;
64799;SDS011;51233;51.982;4.594;2024-02-04T06:53:16;11.90;;;2.50;;
64799;SDS011;51233;51.982;4.594;2024-02-04T06:56:17;9.25;;;3.05;;
64799;SDS011;51233;51.982;4.594;2024-02-04T06:59:17;15.27;;;3.28;;
64799;SDS011;51233;51.982;4.594;2024-02-04T07:02:17;10.38;;;3.45;;
64799;SDS011;51233;51.982;4.594;2024-02-04T07:05:17;10.30;;;2.65;;
64799;SDS011;51233;51.982;4.594;2024-02-04T07:08:17;13.57;;;4.37;;
64799;SDS011;51233;51.982;4.594;2024-02-04T07:11:17;13.98;;;4.13;;
64799;SDS011;51233;51.982;4.594;2024-02-04T07:14:18;11.93;;;3.57;;
64799;SDS011;51233;51.982;4.594;2024-02-04T07:17:18;9.07;;;3.67;;
64799;SDS011;51233;51.982;4.594;2024-02-04T07:20:18;17.10;;;4.13;;
64799;SDS011;51233;51.982;4.594;2024-02-04T07:23:19;13.80;;;3.78;;
64799;SDS011;51233;51.982;4.594;2024-02-04T07:26:20;12.58;;;3.76;;
64799;SDS011;51233;51.982;4.594;2024-02-04T07:29:20;12.63;;;4.03;;
64799;SDS011;51233;51.982;4.594;2024-02-04T07:32:20;11.37;;;3.30;;
64799;SDS011;51233;51.982;4.594;2024-02-04T07:35:21;8.20;;;2.90;;
64799;SDS011;51233;51.982;4.594;2024-02-04T07:38:22;8.98;;;2.70;;
64799;SDS011;51233;51.982;4.594;2024-02-04T07:41:22;7.63;;;2.60;;
64799;SDS011;51233;51.982;4.594;2024-02-04T07:44:22;9.00;;;2.40;;
64799;SDS011;51233;51.982;4.594;2024-02-04T07:50:24;10.20;;;3.05;;
64799;SDS011;51233;51.982;4.594;2024-02-04T07:53:24;6.80;;;2.67;;
64799;SDS011;51233;51.982;4.594;2024-02-04T07:56:24;6.40;;;2.47;;
64799;SDS011;51233;51.982;4.594;2024-02-04T07:59:25;7.77;;;2.50;;
64799;SDS011;51233;51.982;4.594;2024-02-04T08:02:25;7.22;;;2.95;;
64799;SDS011;51233;51.982;4.594;2024-02-04T08:05:25;8.33;;;2.67;;
64799;SDS011;51233;51.982;4.594;2024-02-04T08:08:25;7.70;;;2.40;;
64799;SDS011;51233;51.982;4.594;2024-02-04T08:11:25;5.87;;;1.97;;
64799;SDS011;51233;51.982;4.594;2024-02-04T08:14:26;8.70;;;2.95;;
64799;SDS011;51233;51.982;4.594;2024-02-04T08:17:26;4.47;;;2.03;;
64799;SDS011;51233;51.982;4.594;2024-02-04T08:20:28;9.50;;;2.20;;
64799;SDS011;51233;51.982;4.594;2024-02-04T08:23:28;8.10;;;2.63;;
64799;SDS011;51233;51.982;4.594;2024-02-04T08:26:29;7.60;;;2.38;;
64799;SDS011;51233;51.982;4.594;2024-02-04T08:29:29;6.78;;;2.28;;
64799;SDS011;51233;51.982;4.594;2024-02-04T08:32:29;6.97;;;1.70;;
64799;SDS011;51233;51.982;4.594;2024-02-04T08:35:29;6.57;;;2.03;;
64799;SDS011;51233;51.982;4.594;2024-02-04T08:38:29;6.10;;;2.00;;
64799;SDS011;51233;51.982;4.594;2024-02-04T08:41:30;9.45;;;2.42;;
64799;SDS011;51233;51.982;4.594;2024-02-04T08:44:30;6.46;;;2.08;;
64799;SDS011;51233;51.982;4.594;2024-02-04T08:47:30;8.68;;;2.03;;
64799;SDS011;51233;51.982;4.594;2024-02-04T08:50:30;5.10;;;1.70;;
64799;SDS011;51233;51.982;4.594;2024-02-04T08:53:31;5.68;;;1.58;;
64799;SDS011;51233;51.982;4.594;2024-02-04T08:56:31;6.85;;;1.92;;
64799;SDS011;51233;51.982;4.594;2024-02-04T08:59:31;3.10;;;1.17;;
64799;SDS011;51233;51.982;4.594;2024-02-04T09:02:31;4.40;;;1.63;;
64799;SDS011;51233;51.982;4.594;2024-02-04T09:05:31;4.80;;;2.00;;
64799;SDS011;51233;51.982;4.594;2024-02-04T09:08:32;4.97;;;1.55;;
64799;SDS011;51233;51.982;4.594;2024-02-04T09:11:32;4.35;;;1.40;;
64799;SDS011;51233;51.982;4.594;2024-02-04T09:14:32;5.10;;;1.80;;
64799;SDS011;51233;51.982;4.594;2024-02-04T09:17:32;4.93;;;1.67;;
64799;SDS011;51233;51.982;4.594;2024-02-04T09:20:33;5.50;;;1.80;;
64799;SDS011;51233;51.982;4.594;2024-02-04T09:23:33;4.80;;;1.55;;
64799;SDS011;51233;51.982;4.594;2024-02-04T09:26:33;5.10;;;1.65;;
64799;SDS011;51233;51.982;4.594;2024-02-04T09:29:33;5.67;;;1.23;;
64799;SDS011;51233;51.982;4.594;2024-02-04T09:32:34;4.22;;;1.40;;
64799;SDS011;51233;51.982;4.594;2024-02-04T09:35:34;3.50;;;1.20;;
64799;SDS011;51233;51.982;4.594;2024-02-04T09:38:35;2.65;;;0.90;;
64799;SDS011;51233;51.982;4.594;2024-02-04T09:41:35;1.60;;;0.68;;
64799;SDS011;51233;51.982;4.594;2024-02-04T09:44:35;2.85;;;1.40;;
64799;SDS011;51233;51.982;4.594;2024-02-04T09:47:36;5.18;;;1.70;;
64799;SDS011;51233;51.982;4.594;2024-02-04T09:50:36;5.18;;;1.60;;
64799;SDS011;51233;51.982;4.594;2024-02-04T09:53:39;5.90;;;1.50;;
64799;SDS011;51233;51.982;4.594;2024-02-04T09:56:42;5.07;;;1.63;;
64799;SDS011;51233;51.982;4.594;2024-02-04T09:59:46;4.22;;;1.73;;
64799;SDS011;51233;51.982;4.594;2024-02-04T10:02:48;5.82;;;1.80;;
64799;SDS011;51233;51.982;4.594;2024-02-04T10:05:48;5.18;;;1.60;;
64799;SDS011;51233;51.982;4.594;2024-02-04T10:08:48;5.20;;;1.48;;
64799;SDS011;51233;51.982;4.594;2024-02-04T10:11:49;4.90;;;1.63;;
64799;SDS011;51233;51.982;4.594;2024-02-04T10:14:49;7.03;;;2.30;;
64799;SDS011;51233;51.982;4.594;2024-02-04T10:17:49;4.47;;;1.50;;
64799;SDS011;51233;51.982;4.594;2024-02-04T10:20:49;7.82;;;2.10;;
64799;SDS011;51233;51.982;4.594;2024-02-04T10:23:50;6.05;;;1.70;;
64799;SDS011;51233;51.982;4.594;2024-02-04T10:26:50;7.55;;;1.88;;
64799;SDS011;51233;51.982;4.594;2024-02-04T10:29:50;7.00;;;1.70;;
64799;SDS011;51233;51.982;4.594;2024-02-04T10:32:51;6.93;;;2.10;;
64799;SDS011;51233;51.982;4.594;2024-02-04T10:35:51;4.72;;;1.45;;
64799;SDS011;51233;51.982;4.594;2024-02-04T10:38:51;6.93;;;1.50;;
64799;SDS011;51233;51.982;4.594;2024-02-04T10:41:52;6.80;;;1.60;;
64799;SDS011;51233;51.982;4.594;2024-02-04T10:44:53;8.43;;;1.80;;
64799;SDS011;51233;51.982;4.594;2024-02-04T10:47:55;5.75;;;1.80;;
64799;SDS011;51233;51.982;4.594;2024-02-04T10:50:57;7.00;;;1.63;;
64799;SDS011;51233;51.982;4.594;2024-02-04T10:53:59;6.22;;;2.13;;
64799;SDS011;51233;51.982;4.594;2024-02-04T10:57:03;7.90;;;1.67;;
64799;SDS011;51233;51.982;4.594;2024-02-04T11:03:08;5.82;;;1.85;;
64799;SDS011;51233;51.982;4.594;2024-02-04T11:06:08;9.60;;;1.83;;
64799;SDS011;51233;51.982;4.594;2024-02-04T11:09:11;7.10;;;1.73;;
64799;SDS011;51233;51.982;4.594;2024-02-04T11:12:12;6.22;;;1.98;;
64799;SDS011;51233;51.982;4.594;2024-02-04T11:15:13;9.85;;;2.60;;
64799;SDS011;51233;51.982;4.594;2024-02-04T11:27:30;7.38;;;2.13;;
64799;SDS011;51233;51.982;4.594;2024-02-04T11:30:33;9.45;;;2.45;;
64799;SDS011;51233;51.982;4.594;2024-02-04T11:33:34;6.20;;;2.28;;
64799;SDS011;51233;51.982;4.594;2024-02-04T11:36:37;12.55;;;2.45;;
64799;SDS011;51233;51.982;4.594;2024-02-04T11:39:37;8.02;;;2.20;;
64799;SDS011;51233;51.982;4.594;2024-02-04T11:42:47;9.32;;;2.10;;
64799;SDS011;51233;51.982;4.594;2024-02-04T11:45:47;11.90;;;2.50;;
64799;SDS011;51233;51.982;4.594;2024-02-04T11:48:51;8.55;;;1.85;;
64799;SDS011;51233;51.982;4.594;2024-02-04T11:51:51;5.22;;;1.85;;
64799;SDS011;51233;51.982;4.594;2024-02-04T11:54:52;7.85;;;2.67;;
64799;SDS011;51233;51.982;4.594;2024-02-04T11:57:52;12.20;;;2.70;;
64799;SDS011;51233;51.982;4.594;2024-02-04T12:00:54;9.18;;;2.33;;
64799;SDS011;51233;51.982;4.594;2024-02-04T12:03:57;11.38;;;2.25;;
64799;SDS011;51233;51.982;4.594;2024-02-04T12:06:57;6.50;;;1.70;;
64799;SDS011;51233;51.982;4.594;2024-02-04T12:09:58;11.27;;;2.33;;
64799;SDS011;51233;51.982;4.594;2024-02-04T12:12:58;8.63;;;2.30;;
64799;SDS011;51233;51.982;4.594;2024-02-04T12:15:59;6.93;;;1.90;;
64799;SDS011;51233;51.982;4.594;2024-02-04T12:18:59;6.25;;;2.08;;
64799;SDS011;51233;51.982;4.594;2024-02-04T12:21:59;8.57;;;2.53;;
64799;SDS011;51233;51.982;4.594;2024-02-04T12:24:59;13.23;;;2.63;;
64799;SDS011;51233;51.982;4.594;2024-02-04T12:28:00;10.57;;;2.80;;
64799;SDS011;51233;51.982;4.594;2024-02-04T12:31:02;10.52;;;2.45;;
64799;SDS011;51233;51.982;4.594;2024-02-04T12:34:03;11.10;;;2.77;;
64799;SDS011;51233;51.982;4.594;2024-02-04T12:37:04;9.48;;;2.42;;
64799;SDS011;51233;51.982;4.594;2024-02-04T12:40:04;11.70;;;2.50;;
64799;SDS011;51233;51.982;4.594;2024-02-04T12:43:06;8.75;;;2.58;;
64799;SDS011;51233;51.982;4.594;2024-02-04T12:46:06;9.63;;;2.80;;
64799;SDS011;51233;51.982;4.594;2024-02-04T12:49:08;17.10;;;3.08;;
64799;SDS011;51233;51.982;4.594;2024-02-04T12:52:09;12.23;;;3.20;;
64799;SDS011;51233;51.982;4.594;2024-02-04T12:55:18;12.15;;;2.55;;
64799;SDS011;51233;51.982;4.594;2024-02-04T12:58:18;16.02;;;2.95;;
64799;SDS011;51233;51.982;4.594;2024-02-04T13:01:19;14.77;;;2.90;;
64799;SDS011;51233;51.982;4.594;2024-02-04T13:04:19;8.10;;;2.63;;
64799;SDS011;51233;51.982;4.594;2024-02-04T13:07:19;10.05;;;2.50;;
64799;SDS011;51233;51.982;4.594;2024-02-04T13:10:19;12.38;;;2.92;;
64799;SDS011;51233;51.982;4.594;2024-02-04T13:13:20;10.90;;;2.50;;
64799;SDS011;51233;51.982;4.594;2024-02-04T13:16:20;14.40;;;2.88;;
64799;SDS011;51233;51.982;4.594;2024-02-04T13:22:22;9.50;;;3.08;;
64799;SDS011;51233;51.982;4.594;2024-02-04T13:25:23;11.52;;;2.92;;
64799;SDS011;51233;51.982;4.594;2024-02-04T13:28:23;13.40;;;2.70;;
64799;SDS011;51233;51.982;4.594;2024-02-04T13:31:23;10.25;;;2.42;;
64799;SDS011;51233;51.982;4.594;2024-02-04T13:34:24;11.20;;;2.88;;
64799;SDS011;51233;51.982;4.594;2024-02-04T13:37:24;11.30;;;2.75;;
64799;SDS011;51233;51.982;4.594;2024-02-04T13:40:24;10.44;;;3.34;;
64799;SDS011;51233;51.982;4.594;2024-02-04T13:43:24;7.68;;;2.10;;
64799;SDS011;51233;51.982;4.594;2024-02-04T13:46:25;10.73;;;2.72;;
64799;SDS011;51233;51.982;4.594;2024-02-04T13:49:25;10.40;;;2.55;;
64799;SDS011;51233;51.982;4.594;2024-02-04T13:52:25;9.88;;;2.25;;
64799;SDS011;51233;51.982;4.594;2024-02-04T13:55:25;13.70;;;2.63;;
64799;SDS011;51233;51.982;4.594;2024-02-04T13:58:26;7.18;;;2.30;;
64799;SDS011;51233;51.982;4.594;2024-02-04T14:01:26;13.20;;;2.53;;
64799;SDS011;51233;51.982;4.594;2024-02-04T14:04:26;12.13;;;3.00;;
64799;SDS011;51233;51.982;4.594;2024-02-04T14:07:27;10.57;;;2.93;;
64799;SDS011;51233;51.982;4.594;2024-02-04T14:10:27;8.63;;;2.53;;
64799;SDS011;51233;51.982;4.594;2024-02-04T14:13:27;11.07;;;2.23;;
64799;SDS011;51233;51.982;4.594;2024-02-04T14:16:28;11.87;;;2.73;;
64799;SDS011;51233;51.982;4.594;2024-02-04T14:19:28;11.07;;;3.00;;
64799;SDS011;51233;51.982;4.594;2024-02-04T14:22:28;12.43;;;2.83;;
64799;SDS011;51233;51.982;4.594;2024-02-04T14:25:28;13.73;;;2.67;;
64799;SDS011;51233;51.982;4.594;2024-02-04T14:28:28;11.20;;;3.23;;
64799;SDS011;51233;51.982;4.594;2024-02-04T14:31:29;10.93;;;2.80;;
64799;SDS011;51233;51.982;4.594;2024-02-04T14:34:29;18.08;;;3.38;;
64799;SDS011;51233;51.982;4.594;2024-02-04T14:37:29;13.68;;;2.90;;
64799;SDS011;51233;51.982;4.594;2024-02-04T14:40:29;10.47;;;2.57;;
64799;SDS011;51233;51.982;4.594;2024-02-04T14:43:29;11.93;;;3.25;;
64799;SDS011;51233;51.982;4.594;2024-02-04T14:46:30;12.60;;;3.30;;
64799;SDS011;51233;51.982;4.594;2024-02-04T14:49:30;15.60;;;3.20;;
64799;SDS011;51233;51.982;4.594;2024-02-04T14:52:31;13.45;;;2.90;;
64799;SDS011;51233;51.982;4.594;2024-02-04T14:55:31;22.00;;;4.20;;
64799;SDS011;51233;51.982;4.594;2024-02-04T14:58:31;14.23;;;3.35;;
64799;SDS011;51233;51.982;4.594;2024-02-04T15:01:31;18.73;;;3.60;;
64799;SDS011;51233;51.982;4.594;2024-02-04T15:04:32;15.68;;;3.35;;
64799;SDS011;51233;51.982;4.594;2024-02-04T15:07:32;16.83;;;3.90;;
64799;SDS011;51233;51.982;4.594;2024-02-04T15:10:32;18.75;;;3.70;;
64799;SDS011;51233;51.982;4.594;2024-02-04T15:13:33;13.67;;;3.60;;
64799;SDS011;51233;51.982;4.594;2024-02-04T15:16:34;17.70;;;4.45;;
64799;SDS011;51233;51.982;4.594;2024-02-04T15:19:34;14.25;;;4.10;;
64799;SDS011;51233;51.982;4.594;2024-02-04T15:22:36;14.13;;;3.45;;
64799;SDS011;51233;51.982;4.594;2024-02-04T15:25:36;16.10;;;3.70;;
64799;SDS011;51233;51.982;4.594;2024-02-04T15:28:37;15.85;;;3.42;;
64799;SDS011;51233;51.982;4.594;2024-02-04T15:31:37;22.38;;;4.55;;
64799;SDS011;51233;51.982;4.594;2024-02-04T15:34:37;23.10;;;4.00;;
64799;SDS011;51233;51.982;4.594;2024-02-04T15:37:38;19.38;;;4.15;;
64799;SDS011;51233;51.982;4.594;2024-02-04T15:40:38;17.20;;;4.18;;
64799;SDS011;51233;51.982;4.594;2024-02-04T15:43:38;19.27;;;6.32;;
64799;SDS011;51233;51.982;4.594;2024-02-04T15:46:38;18.70;;;3.80;;
64799;SDS011;51233;51.982;4.594;2024-02-04T15:49:41;16.98;;;4.57;;
64799;SDS011;51233;51.982;4.594;2024-02-04T15:52:41;18.40;;;4.00;;
64799;SDS011;51233;51.982;4.594;2024-02-04T15:55:42;20.60;;;4.77;;
64799;SDS011;51233;51.982;4.594;2024-02-04T15:58:42;20.85;;;5.57;;
64799;SDS011;51233;51.982;4.594;2024-02-04T16:01:43;20.17;;;4.95;;
64799;SDS011;51233;51.982;4.594;2024-02-04T16:07:45;21.20;;;4.97;;
64799;SDS011;51233;51.982;4.594;2024-02-04T16:10:46;23.90;;;5.10;;
64799;SDS011;51233;51.982;4.594;2024-02-04T16:16:48;23.20;;;5.25;;
64799;SDS011;51233;51.982;4.594;2024-02-04T16:19:51;25.33;;;5.30;;
64799;SDS011;51233;51.982;4.594;2024-02-04T16:22:52;16.00;;;3.97;;
64799;SDS011;51233;51.982;4.594;2024-02-04T16:25:52;23.13;;;5.45;;
64799;SDS011;51233;51.982;4.594;2024-02-04T16:28:52;14.95;;;4.18;;
64799;SDS011;51233;51.982;4.594;2024-02-04T16:31:53;22.25;;;5.47;;
64799;SDS011;51233;51.982;4.594;2024-02-04T16:34:53;19.05;;;4.65;;
64799;SDS011;51233;51.982;4.594;2024-02-04T16:37:54;21.52;;;4.95;;
64799;SDS011;51233;51.982;4.594;2024-02-04T16:40:54;21.57;;;5.17;;
64799;SDS011;51233;51.982;4.594;2024-02-04T16:43:55;20.08;;;4.63;;
64799;SDS011;51233;51.982;4.594;2024-02-04T16:46:55;22.87;;;5.20;;
64799;SDS011;51233;51.982;4.594;2024-02-04T16:49:56;19.08;;;5.28;;
64799;SDS011;51233;51.982;4.594;2024-02-04T16:52:57;29.25;;;5.90;;
64799;SDS011;51233;51.982;4.594;2024-02-04T16:55:57;17.93;;;4.43;;
64799;SDS011;51233;51.982;4.594;2024-02-04T16:58:57;22.65;;;5.40;;
64799;SDS011;51233;51.982;4.594;2024-02-04T17:01:59;20.38;;;6.00;;
64799;SDS011;51233;51.982;4.594;2024-02-04T17:04:59;24.17;;;5.10;;
64799;SDS011;51233;51.982;4.594;2024-02-04T17:07:59;22.02;;;5.25;;
64799;SDS011;51233;51.982;4.594;2024-02-04T17:11:00;19.17;;;4.40;;
64799;SDS011;51233;51.982;4.594;2024-02-04T17:14:00;14.93;;;4.05;;
64799;SDS011;51233;51.982;4.594;2024-02-04T17:17:13;20.65;;;5.30;;
64799;SDS011;51233;51.982;4.594;2024-02-04T17:20:15;20.02;;;4.72;;
64799;SDS011;51233;51.982;4.594;2024-02-04T17:23:19;17.85;;;4.20;;
64799;SDS011;51233;51.982;4.594;2024-02-04T17:26:20;23.50;;;5.97;;
64799;SDS011;51233;51.982;4.594;2024-02-04T17:29:22;20.25;;;4.45;;
64799;SDS011;51233;51.982;4.594;2024-02-04T17:32:22;17.50;;;3.97;;
64799;SDS011;51233;51.982;4.594;2024-02-04T17:35:25;17.10;;;4.28;;
64799;SDS011;51233;51.982;4.594;2024-02-04T17:38:28;21.33;;;4.57;;
64799;SDS011;51233;51.982;4.594;2024-02-04T17:41:28;19.57;;;4.90;;
64799;SDS011;51233;51.982;4.594;2024-02-04T17:44:28;17.80;;;3.80;;
64799;SDS011;51233;51.982;4.594;2024-02-04T17:47:29;16.75;;;4.18;;
64799;SDS011;51233;51.982;4.594;2024-02-04T17:50:29;19.30;;;4.63;;
64799;SDS011;51233;51.982;4.594;2024-02-04T17:53:29;18.20;;;4.17;;
64799;SDS011;51233;51.982;4.594;2024-02-04T17:56:29;17.57;;;5.17;;
64799;SDS011;51233;51.982;4.594;2024-02-04T17:59:30;19.67;;;4.93;;
64799;SDS011;51233;51.982;4.594;2024-02-04T18:02:32;15.73;;;3.92;;
64799;SDS011;51233;51.982;4.594;2024-02-04T18:05:35;21.55;;;4.35;;
64799;SDS011;51233;51.982;4.594;2024-02-04T18:08:41;17.50;;;4.50;;
64799;SDS011;51233;51.982;4.594;2024-02-04T18:11:41;20.73;;;5.10;;
64799;SDS011;51233;51.982;4.594;2024-02-04T18:14:41;17.77;;;4.03;;
64799;SDS011;51233;51.982;4.594;2024-02-04T18:17:42;18.05;;;3.97;;
64799;SDS011;51233;51.982;4.594;2024-02-04T18:20:42;11.73;;;3.23;;
64799;SDS011;51233;51.982;4.594;2024-02-04T18:23:43;16.52;;;4.47;;
64799;SDS011;51233;51.982;4.594;2024-02-04T18:26:44;21.38;;;4.70;;